PWSweather.com
Personal Weather Stations
Station Observations
WISCHPK61
Green Bay Schmitt Park, Green Bay, WI 54311

Green Bay Schmitt ParkGreen Bay, WI 54311

Lat: 44.514277, Lon: -87.935067

Elevation: 735

Station Type: Acu Rite Pro Weather Center model 02032C

http://greenbayweathercam.com

High Low Average
Temperature 65.8°F18.8°C 39.0°F3.9°C 46.9°F8.3°C
Dew Point 65.5°F18.6°C 38.4°F3.6°C 46.1°F7.8°C
Winds 1.2 mph 1.9 kmh Calm Calm Calm SCalm S
Wind Gusts 2.3 mph3.7 kmh -- --
Humidity 99% 82% 97%
Pressure 29.33 in993.2 mb 29.00 in982.1 mb -
Precipitation 0.42 in10.7 mm - -
Hour Temp Dew Point Humidity Winds Wind Gusts Pressure Precip Precip Rate Daily Precip Total
12:00 AM 42.3°F5.7°C 41.5°F5.3°C 97% Calm Calm -- 29.34 in993.6 mb - 0.00 in0.0 mm 0.00 in0.0 mm
01:00 AM 42.1°F5.6°C 41.6°F5.3°C 98% Calm Calm -- 29.33 in993.2 mb - 0.00 in0.0 mm 0.00 in0.0 mm
02:00 AM 41.5°F5.3°C 41.2°F5.1°C 99% Calm Calm -- 29.31 in992.6 mb - 0.00 in0.0 mm 0.00 in0.0 mm
03:00 AM 41.9°F5.5°C 41.6°F5.3°C 99% Calm Calm -- 29.29 in991.9 mb - 0.00 in0.0 mm 0.00 in0.0 mm
04:00 AM 41.2°F5.1°C 40.1°F4.5°C 96% Calm Calm -- 29.27 in991.2 mb - 0.00 in0.0 mm 0.00 in0.0 mm
05:00 AM 40.8°F4.9°C 40.5°F4.7°C 99% Calm Calm -- 29.26 in990.9 mb - 0.00 in0.0 mm 0.00 in0.0 mm
06:00 AM 39.4°F4.1°C 38.9°F3.8°C 98% Calm Calm -- 29.25 in990.5 mb - 0.00 in0.0 mm 0.00 in0.0 mm
07:00 AM 39.2°F4.0°C 38.4°F3.6°C 97% Calm Calm -- 29.23 in989.8 mb - 0.00 in0.0 mm 0.00 in0.0 mm
08:00 AM 41.0°F5.0°C 40.5°F4.7°C 98% Calm Calm -- 29.23 in989.8 mb - 0.00 in0.0 mm 0.00 in0.0 mm
09:00 AM 45.9°F7.7°C 45.6°F7.6°C 99% Calm Calm -- 29.22 in989.5 mb - 0.00 in0.0 mm 0.00 in0.0 mm
10:00 AM 48.7°F9.3°C 48.4°F9.1°C 99% Calm Calm -- 29.20 in988.8 mb - 0.00 in0.0 mm 0.00 in0.0 mm
11:00 AM 60.3°F15.7°C 60.0°F15.6°C 99% Calm Calm -- 29.18 in988.1 mb - 0.00 in0.0 mm 0.00 in0.0 mm
12:00 PM 65.8°F18.8°C 65.5°F18.6°C 99% Calm Calm -- 29.15 in987.1 mb - 0.00 in0.0 mm 0.00 in0.0 mm
01:00 PM 62.4°F16.9°C 56.8°F13.8°C 82% 1.2 mph SE1.9 kmh SE 2.3 mph3.7 kmh 29.12 in986.1 mb - 0.00 in0.0 mm 0.00 in0.0 mm
02:00 PM 55.8°F13.2°C 55.6°F13.1°C 99% Calm Calm 1.2 mph1.9 kmh 29.09 in985.1 mb - 0.00 in0.0 mm 0.00 in0.0 mm
03:00 PM 52.9°F11.6°C 52.6°F11.4°C 99% Calm Calm -- 29.04 in983.4 mb - 0.00 in0.0 mm 0.00 in0.0 mm
04:00 PM 49.5°F9.7°C 47.0°F8.3°C 91% Calm Calm -- 29.04 in983.4 mb - 0.08 in2.0 mm 0.08 in2.0 mm
05:00 PM 48.7°F9.3°C 48.4°F9.1°C 99% Calm Calm -- 29.03 in983.1 mb - 0.24 in6.1 mm 0.32 in8.1 mm
06:00 PM 48.7°F9.3°C 48.2°F9.0°C 98% Calm Calm -- 29.01 in982.4 mb - 0.10 in2.5 mm 0.41 in10.4 mm
07:00 PM 48.4°F9.1°C 48.1°F8.9°C 99% Calm Calm -- 29.01 in982.4 mb - 0.01 in0.3 mm 0.42 in10.7 mm
08:00 PM 48.0°F8.9°C 46.9°F8.3°C 96% Calm Calm -- 29.00 in982.1 mb - 0.00 in0.0 mm 0.42 in10.7 mm
09:00 PM 40.5°F4.7°C 39.7°F4.3°C 97% Calm Calm -- 29.02 in982.7 mb - 0.00 in0.0 mm 0.42 in10.7 mm
10:00 PM 39.0°F3.9°C 38.7°F3.7°C 99% Calm Calm -- 29.01 in982.4 mb - 0.00 in0.0 mm 0.42 in10.7 mm
11:00 PM 41.4°F5.2°C 41.1°F5.1°C 99% Calm Calm -- 29.04 in983.4 mb - 0.00 in0.0 mm 0.42 in10.7 mm